Time;durP1;ratioP1;P1;durP2;ratioP2;P2;SDS_P1;SDS_P2;PMS_P1;PMS_P2;Temp;Humidity;BMP_temperature;BMP_pressure;BME280_temperature;BME280_humidity;BME280_pressure;Samples;Min_cycle;Max_cycle;Signal;HPM_P1;HPM_P2
2022/12/06 00:00:18;;;;;;;8.53;2.40;;;4.00;99.90;;;4.65;100.00;98374.25;5044602;28;21002;-82
2022/12/06 00:02:47;;;;;;;2.70;2.33;;;4.00;99.90;;;4.61;100.00;98372.94;5040346;28;20476;-82
2022/12/06 00:05:16;;;;;;;2.67;2.47;;;3.90;99.90;;;4.60;100.00;98373.06;5042747;28;20495;-82
2022/12/06 00:07:46;;;;;;;5.77;2.27;;;3.90;99.90;;;4.58;100.00;98368.84;5046260;28;20547;-82
2022/12/06 00:10:16;;;;;;;3.23;2.63;;;3.90;99.90;;;4.56;100.00;98373.34;5042926;28;20475;-83
2022/12/06 00:12:45;;;;;;;3.30;2.40;;;3.90;99.90;;;4.56;100.00;98367.34;5047009;28;20866;-83
2022/12/06 00:15:16;;;;;;;3.43;2.33;;;3.90;99.90;;;4.56;100.00;98365.59;5045811;28;20459;-83
2022/12/06 00:17:47;;;;;;;2.50;2.30;;;3.90;99.90;;;4.54;100.00;98361.50;5045172;28;20471;-82
2022/12/06 00:20:18;;;;;;;2.20;2.00;;;3.90;99.90;;;4.53;100.00;98355.53;5043129;28;20469;-82
2022/12/06 00:22:48;;;;;;;6.50;2.23;;;3.90;99.90;;;4.53;100.00;98360.69;5042264;28;20467;-82
2022/12/06 00:25:17;;;;;;;2.90;2.23;;;3.90;99.90;;;4.52;100.00;98359.06;5046303;28;20499;-83
2022/12/06 00:27:46;;;;;;;4.07;2.27;;;3.90;99.90;;;4.52;100.00;98353.88;5043838;28;20576;-82
2022/12/06 00:30:19;;;;;;;2.40;2.20;;;3.90;99.90;;;4.52;100.00;98343.53;5044101;28;20815;-82
2022/12/06 00:32:49;;;;;;;3.20;2.23;;;4.00;99.90;;;4.54;100.00;98338.22;5045102;28;20463;-82
2022/12/06 00:35:19;;;;;;;2.73;2.23;;;4.00;99.90;;;4.54;100.00;98341.63;5045497;28;20471;-82
2022/12/06 00:37:48;;;;;;;2.30;2.10;;;4.00;99.90;;;4.53;100.00;98333.97;5045239;28;22096;-83
2022/12/06 00:40:18;;;;;;;10.93;2.43;;;4.00;99.90;;;4.54;100.00;98338.22;5042308;28;20471;-82
2022/12/06 00:42:47;;;;;;;3.50;2.60;;;3.90;99.90;;;4.54;100.00;98331.28;5046217;28;20500;-82
2022/12/06 00:45:19;;;;;;;2.60;2.40;;;4.00;99.90;;;4.49;100.00;98333.44;5044475;28;20587;-82
2022/12/06 00:47:48;;;;;;;3.07;2.37;;;4.00;99.90;;;4.51;100.00;98341.88;5047445;28;20472;-83
2022/12/06 00:50:18;;;;;;;2.37;2.17;;;4.00;99.90;;;4.46;100.00;98343.28;5041040;28;20527;-82
2022/12/06 00:52:47;;;;;;;2.77;2.40;;;3.90;99.90;;;4.42;100.00;98336.75;5044409;28;20464;-83
2022/12/06 00:55:17;;;;;;;3.10;2.43;;;3.90;99.90;;;4.40;100.00;98342.06;5043274;28;20552;-82
2022/12/06 00:57:46;;;;;;;5.00;2.27;;;3.80;99.90;;;4.40;100.00;98326.53;5046350;28;20593;-82
2022/12/06 01:00:20;;;;;;;2.47;2.27;;;3.80;99.90;;;4.42;100.00;98328.97;5045833;28;20464;-83
2022/12/06 01:02:49;;;;;;;4.23;2.37;;;3.80;99.90;;;4.46;100.00;98327.75;5047777;28;20563;-82
2022/12/06 01:05:19;;;;;;;2.43;2.23;;;3.90;99.90;;;4.44;100.00;98324.50;5046472;28;20573;-82
2022/12/06 01:07:49;;;;;;;2.20;2.00;;;3.90;99.90;;;4.45;100.00;98326.09;5048108;28;20476;-82
2022/12/06 01:10:18;;;;;;;2.47;2.27;;;3.90;99.90;;;4.44;100.00;98330.47;5045371;28;21154;-82
2022/12/06 01:12:47;;;;;;;8.10;2.27;;;3.80;99.90;;;4.43;100.00;98334.03;5045084;28;20484;-83
2022/12/06 01:15:17;;;;;;;4.10;2.10;;;3.80;99.90;;;4.45;100.00;98333.88;5046828;28;21002;-82
2022/12/06 01:17:47;;;;;;;2.77;2.13;;;3.80;99.90;;;4.44;100.00;98338.22;5045098;28;20464;-83
2022/12/06 01:20:18;;;;;;;2.93;2.13;;;3.70;99.90;;;4.45;100.00;98352.00;5042771;28;20460;-83
2022/12/06 01:22:47;;;;;;;2.33;1.90;;;3.70;99.90;;;4.45;100.00;98342.44;5041183;28;20546;-82
2022/12/06 01:25:16;;;;;;;3.00;2.13;;;3.80;99.90;;;4.46;100.00;98348.44;5043378;28;20497;-83
2022/12/06 01:27:46;;;;;;;7.33;2.30;;;3.80;99.90;;;4.44;100.00;98345.19;5039498;28;20478;-82
2022/12/06 01:30:18;;;;;;;2.43;2.03;;;3.80;99.90;;;4.44;100.00;98346.00;5045529;28;20476;-83
2022/12/06 01:32:47;;;;;;;2.33;2.13;;;3.80;99.90;;;4.46;100.00;98343.28;5042997;28;20572;-83
2022/12/06 01:35:17;;;;;;;2.60;2.10;;;3.80;99.90;;;4.44;100.00;98346.00;5046876;28;20468;-83
2022/12/06 01:37:47;;;;;;;3.70;2.40;;;3.80;99.90;;;4.43;100.00;98341.78;5042920;28;20557;-83
2022/12/06 01:40:16;;;;;;;3.70;3.07;;;3.80;99.90;;;4.42;100.00;98347.91;5045406;28;20507;-82
2022/12/06 01:42:46;;;;;;;2.60;2.40;;;3.80;99.90;;;4.40;100.00;98342.06;5042934;28;20467;-82
2022/12/06 01:45:18;;;;;;;3.10;2.80;;;3.80;99.90;;;4.40;100.00;98349.84;5042773;28;20594;-82
2022/12/06 01:47:48;;;;;;;3.37;2.97;;;3.70;99.90;;;4.39;100.00;98343.03;5042752;28;20463;-83
2022/12/06 01:50:25;;;;;;;3.40;3.03;;;3.70;99.90;;;4.39;100.00;98347.38;5043947;28;20556;-82
2022/12/06 01:53:02;;;;;;;3.50;2.77;;;3.70;99.90;;;4.36;100.00;98343.31;5041690;28;20504;-82
2022/12/06 01:55:36;;;;;;;2.30;2.10;;;3.70;99.90;;;4.34;100.00;98340.03;5045901;28;20938;-83
2022/12/06 01:58:16;;;;;;;2.93;2.20;;;3.70;99.90;;;4.33;100.00;98330.66;5041666;28;21028;-83
2022/12/06 02:00:48;;;;;;;3.10;2.83;;;3.70;99.90;;;4.37;100.00;98334.56;5038663;28;20466;-83
2022/12/06 02:03:23;;;;;;;5.37;2.67;;;3.80;99.90;;;4.38;100.00;98327.63;5040421;28;20464;-83
2022/12/06 02:05:53;;;;;;;3.07;2.67;;;3.80;99.90;;;4.34;100.00;98334.06;5041067;28;21125;-82
2022/12/06 02:08:23;;;;;;;5.17;3.07;;;3.80;99.90;;;4.36;100.00;98332.13;5043350;28;20471;-82
2022/12/06 02:10:53;;;;;;;3.13;2.73;;;3.70;99.90;;;4.38;100.00;98335.38;5042569;28;20460;-82
2022/12/06 02:13:23;;;;;;;3.97;2.97;;;3.70;99.90;;;4.38;100.00;98333.63;5041190;28;20493;-83
2022/12/06 02:16:07;;;;;;;2.97;2.77;;;3.70;99.90;;;4.38;100.00;98341.38;5041528;28;20539;-83
2022/12/06 02:18:47;;;;;;;2.70;2.50;;;3.70;99.90;;;4.34;100.00;98336.66;5042269;28;20470;-83
2022/12/06 02:21:31;;;;;;;9.43;2.80;;;3.80;99.90;;;4.33;100.00;98341.00;5042795;28;20971;-83
2022/12/06 02:24:44;;;;;;;3.10;2.47;;;3.70;99.90;;;4.32;100.00;98347.13;5042788;28;20464;-82
2022/12/06 02:28:04;;;;;;;3.70;2.67;;;3.80;99.90;;;4.35;100.00;98344.25;5044089;28;20491;-82
2022/12/06 02:30:57;;;;;;;4.83;2.53;;;3.70;99.90;;;4.38;100.00;98341.38;5041552;28;20510;-82
2022/12/06 02:33:38;;;;;;;2.90;2.43;;;3.90;99.90;;;4.30;100.00;98333.53;5043442;28;21219;-82
2022/12/06 02:36:20;;;;;;;2.70;2.30;;;3.80;99.90;;;4.33;100.00;98335.00;5045779;28;20467;-83
2022/12/06 02:38:54;;;;;;;3.43;2.60;;;3.80;99.90;;;4.28;100.00;98327.66;5044411;28;21273;-83
2022/12/06 02:41:30;;;;;;;2.80;2.43;;;3.70;99.90;;;4.28;100.00;98334.59;5043154;28;20555;-82
2022/12/06 02:44:05;;;;;;;4.23;2.63;;;3.70;99.90;;;4.28;100.00;98326.84;5043151;28;20472;-83
2022/12/06 02:46:40;;;;;;;3.10;2.30;;;3.70;99.90;;;4.31;100.00;98319.59;5041796;28;21028;-82
2022/12/06 02:49:13;;;;;;;2.50;2.13;;;3.80;99.90;;;4.31;100.00;98322.19;5041505;28;20471;-81
2022/12/06 02:51:44;;;;;;;4.40;2.90;;;3.70;99.90;;;4.32;100.00;98313.47;5045646;28;20547;-82
2022/12/06 02:54:14;;;;;;;2.70;2.20;;;3.70;99.90;;;4.33;100.00;98307.34;5043116;28;20559;-82
2022/12/06 02:56:44;;;;;;;5.03;3.00;;;3.70;99.90;;;4.33;100.00;98309.94;5046563;28;20479;-82
2022/12/06 02:59:14;;;;;;;2.57;2.37;;;3.70;99.90;;;4.33;100.00;98307.34;5047580;28;20563;-83
2022/12/06 03:01:52;;;;;;;3.33;2.33;;;3.70;99.90;;;4.33;100.00;98294.41;5046803;28;20468;-82
2022/12/06 03:04:47;;;;;;;4.13;2.30;;;3.70;99.90;;;4.34;100.00;98303.78;5049001;28;20462;-81
2022/12/06 03:07:36;;;;;;;3.47;2.37;;;3.70;99.90;;;4.32;100.00;98303.13;5047404;28;20489;-83
2022/12/06 03:10:46;;;;;;;3.53;2.50;;;3.70;99.90;;;4.32;100.00;98295.38;5047589;28;20484;-83
2022/12/06 03:13:23;;;;;;;4.07;2.70;;;3.70;99.90;;;4.30;100.00;98299.88;5044879;28;20464;-83
2022/12/06 03:16:05;;;;;;;3.63;2.37;;;3.70;99.90;;;4.30;100.00;98297.28;5047302;28;20881;-82
2022/12/06 03:18:43;;;;;;;3.43;2.20;;;3.80;99.90;;;4.31;100.00;98298.06;5049568;28;20490;-83
2022/12/06 03:21:19;;;;;;;3.97;2.37;;;3.70;99.90;;;4.30;100.00;98299.88;5041587;28;20506;-84
2022/12/06 03:23:51;;;;;;;2.60;2.40;;;3.80;99.90;;;4.31;100.00;98298.91;5047168;28;20464;-83
2022/12/06 03:26:27;;;;;;;2.80;2.37;;;3.80;99.90;;;4.28;100.00;98299.19;5046591;28;20539;-82
2022/12/06 03:29:01;;;;;;;4.77;2.60;;;3.80;99.90;;;4.26;100.00;98303.69;5048377;28;21384;-82
2022/12/06 03:31:37;;;;;;;2.40;2.20;;;3.70;99.90;;;4.25;100.00;98307.22;5045867;28;20481;-83
2022/12/06 03:34:16;;;;;;;4.80;2.93;;;3.80;99.90;;;4.24;100.00;98303.00;5048053;28;20459;-83
2022/12/06 03:36:49;;;;;;;3.23;2.37;;;3.90;99.90;;;4.24;100.00;98312.53;5044515;28;20495;-82
2022/12/06 03:39:28;;;;;;;4.47;2.60;;;3.80;99.90;;;4.25;100.00;98309.00;5043408;28;20465;-83
2022/12/06 03:42:01;;;;;;;4.53;2.80;;;3.80;99.90;;;4.20;100.00;98306.81;5045654;28;20468;-83
2022/12/06 03:44:32;;;;;;;3.80;2.70;;;3.60;99.90;;;4.17;100.00;98307.09;5047741;28;21158;-82
2022/12/06 03:47:08;;;;;;;4.10;2.40;;;3.70;99.90;;;4.13;100.00;98299.78;5048296;28;20532;-82
2022/12/06 03:49:45;;;;;;;3.87;2.80;;;3.50;99.90;;;4.15;100.00;98303.88;5048778;28;20458;-82
2022/12/06 03:52:15;;;;;;;3.20;2.50;;;3.60;99.90;;;4.11;100.00;98304.28;5047690;28;20549;-81
2022/12/06 03:54:44;;;;;;;3.53;2.50;;;3.50;99.90;;;4.13;100.00;98305.75;5044920;28;21047;-82
2022/12/06 03:57:14;;;;;;;2.90;2.03;;;3.50;99.90;;;4.16;100.00;98315.84;5048151;28;20468;-83
2022/12/06 03:59:45;;;;;;;4.90;2.30;;;3.50;99.90;;;4.17;100.00;98301.94;5046527;28;20467;-85
2022/12/06 04:02:14;;;;;;;4.50;4.10;;;3.50;99.90;;;4.20;100.00;98306.81;5041606;28;21108;-83
2022/12/06 04:04:44;;;;;;;2.93;2.40;;;3.50;99.90;;;4.19;100.00;98307.81;5046321;28;20568;-83
2022/12/06 04:07:14;;;;;;;3.90;2.50;;;3.60;99.90;;;4.17;100.00;98306.28;5042145;28;20540;-83
2022/12/06 04:10:01;;;;;;;2.77;2.57;;;3.60;99.90;;;4.18;100.00;98298.41;5040208;28;20505;-83
2022/12/06 04:15:21;;;;;;;3.23;2.20;;;3.50;99.90;;;4.17;100.00;98296.75;5043454;28;20458;-84
2022/12/06 04:23:37;;;;;;;3.93;3.03;;;3.50;99.90;;;4.19;100.00;98283.69;5045699;28;20826;-83
2022/12/06 04:26:09;;;;;;;2.73;2.13;;;3.50;99.90;;;4.20;100.00;98290.50;5042185;28;20502;-83
2022/12/06 04:39:46;;;;;;;2.40;2.13;;;3.60;99.90;;;4.24;100.00;98291.84;5046765;28;20544;-83
2022/12/06 04:45:03;;;;;;;5.57;2.77;;;3.60;99.90;;;4.22;100.00;98297.16;5043710;28;20528;-82
2022/12/06 04:47:33;;;;;;;3.60;2.50;;;3.60;99.90;;;4.23;100.00;98287.63;5043795;28;20545;-82
2022/12/06 04:50:03;;;;;;;4.73;2.27;;;3.60;99.90;;;4.24;100.00;98297.84;5045571;28;20945;-83
2022/12/06 04:52:34;;;;;;;2.70;2.10;;;3.60;99.90;;;4.24;100.00;98299.59;5044061;28;20546;-83
2022/12/06 04:55:04;;;;;;;3.37;2.43;;;3.60;99.90;;;4.24;100.00;98291.84;5047584;28;21047;-83
2022/12/06 04:57:34;;;;;;;3.40;2.50;;;3.60;99.90;;;4.23;100.00;98296.22;5046439;28;21029;-82
2022/12/06 05:00:03;;;;;;;3.73;2.30;;;3.60;99.90;;;4.25;100.00;98296.88;5047048;28;20557;-83
2022/12/06 05:02:33;;;;;;;3.20;1.93;;;3.60;99.90;;;4.23;100.00;98296.22;5044858;28;20521;-84
2022/12/06 05:05:02;;;;;;;3.17;2.40;;;3.70;99.90;;;4.24;100.00;98299.59;5044808;28;20491;-83
2022/12/06 05:07:33;;;;;;;2.10;1.90;;;3.60;99.90;;;4.23;100.00;98298.81;5043140;28;20496;-84
2022/12/06 05:10:03;;;;;;;3.13;2.70;;;3.60;99.90;;;4.25;100.00;98296.88;5040420;28;20550;-84
2022/12/06 05:12:32;;;;;;;4.90;3.43;;;3.60;99.90;;;4.24;100.00;98300.41;5041125;28;20472;-84
2022/12/06 05:15:04;;;;;;;10.57;5.90;;;3.60;99.90;;;4.23;100.00;98291.03;5041687;28;20461;-84
2022/12/06 05:17:33;;;;;;;13.00;7.60;;;3.70;99.90;;;4.19;100.00;98294.03;5041062;28;20472;-84
2022/12/06 05:20:04;;;;;;;5.23;3.10;;;3.60;99.90;;;4.21;100.00;98282.59;5043054;28;21123;-83
2022/12/06 05:22:35;;;;;;;3.63;2.37;;;3.60;99.90;;;4.20;100.00;98293.09;5043384;28;20552;-84
2022/12/06 05:25:05;;;;;;;11.20;6.17;;;3.50;99.90;;;4.16;100.00;98284.81;5043538;28;21179;-79
2022/12/06 05:27:35;;;;;;;7.53;4.70;;;3.50;99.90;;;4.18;100.00;98280.28;5041131;28;20541;-84
2022/12/06 05:30:06;;;;;;;24.23;10.70;;;3.60;99.90;;;4.21;100.00;98281.78;5043990;28;20501;-84
2022/12/06 05:32:35;;;;;;;8.33;4.20;;;3.60;99.90;;;4.19;100.00;98284.53;5042341;28;20858;-84
2022/12/06 05:35:04;;;;;;;4.47;2.97;;;3.70;99.90;;;4.10;100.00;98287.94;5043070;28;20537;-81
2022/12/06 05:37:35;;;;;;;4.37;2.90;;;3.60;99.90;;;4.11;100.00;98279.22;5044399;28;20510;-84
2022/12/06 05:40:06;;;;;;;3.00;2.70;;;3.60;99.90;;;4.11;100.00;98274.03;5041518;28;20500;-81
2022/12/06 05:42:36;;;;;;;4.27;2.73;;;3.60;99.90;;;4.13;100.00;98279.09;5046118;28;20526;-82
2022/12/06 05:45:07;;;;;;;3.50;2.60;;;3.60;99.90;;;4.10;100.00;98276.75;5047267;28;20507;-81
2022/12/06 05:47:36;;;;;;;2.87;2.40;;;3.60;99.90;;;4.09;100.00;98282.91;5045538;28;20578;-81
2022/12/06 05:50:08;;;;;;;3.33;2.63;;;3.50;99.90;;;4.09;100.00;98278.56;5045998;28;20473;-81
2022/12/06 05:52:39;;;;;;;4.53;3.00;;;3.60;99.90;;;4.07;100.00;98285.63;5042538;28;20957;-81
2022/12/06 05:55:10;;;;;;;4.33;3.37;;;3.60;99.90;;;4.07;100.00;98285.63;5043911;28;20487;-82
2022/12/06 05:57:41;;;;;;;2.80;2.60;;;3.50;99.90;;;4.07;100.00;98291.63;5045536;28;20471;-81
2022/12/06 06:00:16;;;;;;;2.53;2.33;;;3.40;99.90;;;4.09;100.00;98288.91;5044882;28;20511;-81
2022/12/06 06:02:45;;;;;;;3.70;2.63;;;3.50;99.90;;;4.12;100.00;98287.81;5045864;28;20467;-81
2022/12/06 06:05:16;;;;;;;2.17;2.00;;;3.50;99.90;;;4.11;100.00;98292.16;5047609;28;20471;-82
2022/12/06 06:07:47;;;;;;;2.80;2.60;;;3.50;99.90;;;4.11;100.00;98297.34;5047239;28;21430;-81
2022/12/06 06:10:16;;;;;;;3.73;2.50;;;3.50;99.90;;;4.12;100.00;98303.31;5047484;28;20531;-82
2022/12/06 06:12:46;;;;;;;3.53;2.53;;;3.40;99.90;;;4.07;100.00;98301.16;5046148;28;20507;-82
2022/12/06 06:15:15;;;;;;;3.80;2.50;;;3.40;99.90;;;4.05;100.00;98305.66;5047342;28;20538;-81
2022/12/06 06:17:45;;;;;;;4.53;2.60;;;3.40;99.90;;;4.07;100.00;98307.16;5046908;28;20510;-81
2022/12/06 06:20:15;;;;;;;3.27;2.47;;;3.50;99.90;;;4.10;100.00;98306.03;5046508;28;20560;-81
2022/12/06 06:22:46;;;;;;;4.07;2.73;;;3.50;99.90;;;4.07;100.00;98301.16;5044927;28;21148;-82
2022/12/06 06:25:16;;;;;;;3.20;2.40;;;3.50;99.90;;;4.07;100.00;98304.56;5042454;28;21060;-81
2022/12/06 06:27:45;;;;;;;3.70;2.77;;;3.50;99.90;;;4.09;100.00;98308.78;5045458;28;20526;-82
2022/12/06 06:30:15;;;;;;;4.60;2.53;;;3.50;99.90;;;4.09;100.00;98309.59;5048212;28;20483;-81
2022/12/06 06:32:44;;;;;;;4.87;2.60;;;3.50;99.90;;;4.07;100.00;98306.31;5046699;28;20496;-82
2022/12/06 06:35:14;;;;;;;4.33;2.87;;;3.40;99.90;;;4.07;100.00;98311.50;5048628;28;20973;-81
2022/12/06 06:37:47;;;;;;;2.60;2.40;;;3.20;99.90;;;4.09;100.00;98308.78;5043171;28;20478;-82
2022/12/06 06:40:18;;;;;;;3.80;2.73;;;3.40;99.90;;;4.09;100.00;98314.78;5046950;28;20464;-83
2022/12/06 06:42:47;;;;;;;3.17;2.53;;;3.40;99.90;;;4.09;100.00;98317.38;5045237;28;20518;-81
2022/12/06 06:45:18;;;;;;;3.90;3.07;;;3.40;99.90;;;4.12;100.00;98311.91;5044595;28;20519;-82
2022/12/06 06:47:55;;;;;;;4.47;2.90;;;3.50;99.90;;;4.11;100.00;98312.84;5046306;28;20509;-81
2022/12/06 06:50:25;;;;;;;3.10;2.80;;;3.40;99.90;;;4.11;100.00;98315.44;5044720;28;20470;-81
2022/12/06 06:52:54;;;;;;;3.77;2.77;;;3.40;99.90;;;4.11;100.00;98318.03;5044285;28;20467;-81
2022/12/06 06:55:25;;;;;;;3.50;2.73;;;3.40;99.90;;;4.09;100.00;98319.97;5044638;28;20990;-81
2022/12/06 06:57:55;;;;;;;3.83;2.53;;;3.40;99.90;;;4.08;100.00;98320.91;5049067;28;20459;-81
2022/12/06 07:00:25;;;;;;;5.80;3.47;;;3.50;99.90;;;4.04;100.00;98327.31;5051318;28;20555;-82
2022/12/06 07:02:55;;;;;;;3.60;2.50;;;3.40;99.90;;;4.02;100.00;98330.03;5049524;28;20475;-81
2022/12/06 07:05:24;;;;;;;3.83;2.93;;;3.30;99.90;;;4.04;100.00;98322.13;5051065;28;20457;-82
2022/12/06 07:07:56;;;;;;;2.37;2.13;;;3.30;99.90;;;4.09;100.00;98322.53;5048534;28;20530;-82
2022/12/06 07:10:26;;;;;;;2.83;2.53;;;3.50;99.90;;;4.10;100.00;98321.56;5051947;28;20460;-81
2022/12/06 07:12:55;;;;;;;4.87;2.67;;;3.50;99.90;;;4.07;100.00;98317.50;5051948;28;20467;-81
2022/12/06 07:15:25;;;;;;;3.30;3.00;;;3.50;99.90;;;4.04;100.00;98315.19;5052124;28;20997;-82
2022/12/06 07:17:54;;;;;;;8.60;2.60;;;3.40;99.90;;;4.07;100.00;98314.09;5049685;28;20504;-82
2022/12/06 07:20:24;;;;;;;2.93;2.20;;;3.40;99.90;;;4.04;100.00;98314.38;5050475;28;20462;-82
2022/12/06 07:22:56;;;;;;;6.20;3.30;;;3.40;99.90;;;4.07;100.00;98312.31;5049301;28;20537;-81
2022/12/06 07:25:24;;;;;;;3.17;2.40;;;3.50;99.90;;;4.06;100.00;98312.47;5051241;28;20551;-81
2022/12/06 07:27:54;;;;;;;4.20;3.10;;;3.60;99.90;;;4.02;100.00;98308.53;5049165;28;20591;-82
2022/12/06 07:30:23;;;;;;;3.60;3.03;;;3.50;99.90;;;3.95;100.00;98312.63;5050123;28;20910;-82
2022/12/06 07:32:57;;;;;;;4.00;2.80;;;3.40;99.90;;;3.97;100.00;98315.88;5048134;28;20458;-81
2022/12/06 07:35:27;;;;;;;4.33;2.80;;;3.30;99.90;;;4.00;100.00;98305.25;5047680;28;20945;-81
2022/12/06 07:38:17;;;;;;;5.63;2.87;;;3.40;99.90;;;3.99;100.00;98311.41;5046472;28;20546;-82
2022/12/06 07:40:47;;;;;;;4.80;3.20;;;3.40;99.90;;;3.96;100.00;98309.06;5046813;28;20474;-82
2022/12/06 07:46:22;;;;;;;4.17;2.97;;;3.40;99.90;;;3.97;100.00;98300.34;5048328;28;21020;-81
2022/12/06 07:48:52;;;;;;;4.50;2.80;;;3.40;99.90;;;3.97;100.00;98300.34;5049314;28;20501;-81
2022/12/06 07:51:22;;;;;;;3.13;2.60;;;3.40;99.90;;;3.95;100.00;98303.09;5049336;28;20498;-81
2022/12/06 07:53:53;;;;;;;4.10;2.97;;;3.30;99.90;;;3.98;100.00;98302.00;5051106;28;20474;-81
2022/12/06 07:56:23;;;;;;;2.73;2.50;;;3.30;99.90;;;4.00;100.00;98300.06;5047027;28;20969;-81
2022/12/06 07:58:53;;;;;;;4.40;3.23;;;3.30;99.90;;;3.98;100.00;98302.00;5049759;28;20475;-81
2022/12/06 08:01:23;;;;;;;3.60;2.80;;;3.40;99.90;;;4.01;100.00;98297.38;5050058;28;21023;-82
2022/12/06 08:03:55;;;;;;;3.80;2.70;;;3.30;99.90;;;4.04;100.00;98296.25;5047792;28;21031;-82
2022/12/06 08:06:24;;;;;;;3.83;3.03;;;3.40;99.90;;;4.07;100.00;98295.97;5048846;28;20464;-81
2022/12/06 08:08:56;;;;;;;4.03;2.90;;;3.50;99.90;;;4.03;100.00;98305.78;5049448;28;20497;-81
2022/12/06 08:11:27;;;;;;;2.90;2.53;;;3.50;99.90;;;4.06;100.00;98304.72;5049027;28;20458;-81
2022/12/06 08:13:58;;;;;;;4.80;3.50;;;3.60;99.90;;;4.09;100.00;98307.03;5047099;28;21034;-82
2022/12/06 08:16:28;;;;;;;3.93;2.83;;;3.60;99.90;;;4.05;100.00;98303.91;5048283;28;20542;-82
2022/12/06 08:18:58;;;;;;;3.90;3.30;;;3.50;99.90;;;4.06;100.00;98304.72;5049063;28;20549;-82
2022/12/06 08:21:27;;;;;;;4.47;3.03;;;3.40;99.90;;;4.09;100.00;98304.44;5047153;28;21675;-81
2022/12/06 08:23:58;;;;;;;6.67;3.20;;;3.40;99.90;;;4.10;100.00;98300.03;5046202;28;20476;-81
2022/12/06 08:26:29;;;;;;;6.00;4.40;;;3.50;99.90;;;4.12;100.00;98304.16;5046093;28;20593;-81
2022/12/06 08:29:01;;;;;;;4.30;3.57;;;3.50;99.90;;;4.11;100.00;98302.50;5045317;28;20494;-82
2022/12/06 08:31:33;;;;;;;7.63;4.20;;;3.50;99.90;;;4.13;100.00;98300.56;5044094;28;20467;-81
2022/12/06 08:34:04;;;;;;;6.60;3.90;;;3.50;99.90;;;4.17;100.00;98306.28;5044325;28;20478;-81
2022/12/06 08:36:32;;;;;;;6.30;3.97;;;3.50;99.90;;;4.18;100.00;98303.56;5044221;28;20476;-81
2022/12/06 08:39:05;;;;;;;7.47;4.37;;;3.50;99.90;;;4.15;100.00;98308.22;5046400;28;21211;-81
2022/12/06 08:44:23;;;;;;;6.87;4.30;;;3.60;99.90;;;4.20;100.00;98313.81;5044791;28;20496;-81
2022/12/06 08:46:53;;;;;;;7.43;3.93;;;3.60;99.90;;;4.17;100.00;98312.28;5045704;28;20463;-82
2022/12/06 08:49:24;;;;;;;4.20;3.10;;;3.60;99.90;;;4.14;100.00;98312.56;5047852;28;21087;-81
2022/12/06 08:51:54;;;;;;;10.20;4.10;;;3.60;99.90;;;4.15;100.00;98309.03;5048014;28;20567;-81
2022/12/06 08:54:26;;;;;;;4.70;3.67;;;3.50;99.90;;;4.19;100.00;98309.56;5048775;28;20546;-82
2022/12/06 08:56:55;;;;;;;7.23;3.73;;;3.60;99.90;;;4.16;100.00;98309.84;5045238;28;20471;-81
2022/12/06 08:59:26;;;;;;;4.50;3.60;;;3.50;99.90;;;4.19;100.00;98310.41;5045827;28;20469;-81
2022/12/06 09:01:55;;;;;;;5.80;4.13;;;3.60;99.90;;;4.21;100.00;98311.06;5048349;28;20480;-82
2022/12/06 09:04:26;;;;;;;5.10;3.80;;;3.70;99.90;;;4.21;100.00;98308.47;5047753;28;20464;-81
2022/12/06 09:06:56;;;;;;;4.10;3.33;;;3.60;99.90;;;4.22;100.00;98315.28;5048305;28;20498;-81
2022/12/06 09:09:28;;;;;;;4.40;3.10;;;3.60;99.90;;;4.24;100.00;98312.53;5048339;28;20583;-82
2022/12/06 09:11:57;;;;;;;3.83;3.20;;;3.60;99.90;;;4.29;100.00;98326.72;5048243;28;20499;-81
2022/12/06 09:14:27;;;;;;;5.20;3.07;;;3.80;99.90;;;4.30;100.00;98319.75;5048864;28;20464;-82
2022/12/06 09:16:57;;;;;;;5.77;3.67;;;3.80;99.90;;;4.31;100.00;98317.00;5049001;28;20464;-81
2022/12/06 09:19:26;;;;;;;4.53;3.30;;;3.90;99.90;;;4.35;100.00;98310.59;5048138;28;20930;-82
2022/12/06 09:21:57;;;;;;;4.47;3.03;;;3.90;99.90;;;4.37;100.00;98316.44;5048211;28;20523;-82
2022/12/06 09:24:28;;;;;;;8.00;2.77;;;3.90;99.90;;;4.39;100.00;98311.97;5046622;28;20486;-81
2022/12/06 09:26:57;;;;;;;5.73;3.40;;;3.90;99.90;;;4.41;100.00;98317.78;5044675;28;20456;-82
2022/12/06 09:29:26;;;;;;;5.37;3.63;;;4.00;99.90;;;4.40;100.00;98316.19;5043661;28;20489;-81
2022/12/06 09:31:56;;;;;;;5.80;3.73;;;3.90;99.90;;;4.43;100.00;98326.25;5048607;28;20468;-81
2022/12/06 09:34:25;;;;;;;4.50;2.90;;;3.90;99.90;;;4.42;100.00;98337.56;5048072;28;20480;-82
2022/12/06 09:37:05;;;;;;;3.47;3.00;;;3.90;99.90;;;4.42;100.00;98337.56;5047014;28;20480;-82
2022/12/06 09:39:43;;;;;;;4.93;3.53;;;3.90;99.90;;;4.48;100.00;98337.00;5044729;28;20541;-81
2022/12/06 09:43:01;;;;;;;4.23;3.13;;;4.00;99.90;;;4.47;100.00;98335.38;5046876;28;20467;-81
2022/12/06 09:46:03;;;;;;;3.30;2.77;;;3.90;99.90;;;4.49;100.00;98338.63;5045837;28;20495;-82
2022/12/06 09:49:12;;;;;;;3.87;3.30;;;3.90;99.90;;;4.54;100.00;98344.22;5048895;28;21039;-81
2022/12/06 09:52:03;;;;;;;7.20;3.83;;;4.00;99.90;;;4.59;100.00;98338.59;5036583;28;20490;-81
2022/12/06 09:54:53;;;;;;;3.13;2.77;;;4.00;99.90;;;4.62;100.00;98340.09;5049139;28;20476;-82
2022/12/06 09:57:42;;;;;;;3.73;3.33;;;4.00;99.90;;;4.64;100.00;98340.75;5045777;28;20461;-81
2022/12/06 10:00:15;;;;;;;3.87;2.77;;;4.10;99.90;;;4.66;100.00;98338.84;5042241;28;20891;-81
2022/12/06 10:03:28;;;;;;;2.87;2.43;;;4.10;99.90;;;4.69;100.00;98341.94;5046536;28;20483;-82
2022/12/06 10:06:01;;;;;;;3.63;2.53;;;4.20;99.90;;;4.65;100.00;98338.00;5045556;28;21056;-81
2022/12/06 10:08:57;;;;;;;1.93;1.83;;;4.20;99.90;;;4.65;100.00;98339.81;5044886;28;20998;-81
2022/12/06 10:11:51;;;;;;;3.63;2.10;;;4.10;99.90;;;4.71;100.00;98336.63;5045003;28;21028;-81
2022/12/06 10:14:50;;;;;;;3.97;2.57;;;4.10;99.90;;;4.77;100.00;98336.06;5042677;28;20457;-81
2022/12/06 10:17:36;;;;;;;2.00;1.80;;;4.20;99.90;;;4.77;100.00;98336.06;5044509;28;20466;-81
2022/12/06 10:20:17;;;;;;;2.57;2.37;;;4.30;99.90;;;4.79;100.00;98334.16;5046560;28;20473;-81
2022/12/06 10:23:05;;;;;;;3.43;2.83;;;4.40;99.90;;;4.78;100.00;98332.53;5046383;28;21033;-82
2022/12/06 10:25:42;;;;;;;2.80;2.40;;;4.30;99.90;;;4.80;100.00;98333.19;5046083;28;21029;-82
2022/12/06 10:28:20;;;;;;;2.73;2.50;;;4.30;99.90;;;4.81;100.00;98334.81;5045960;28;20547;-81
2022/12/06 10:30:56;;;;;;;2.40;2.20;;;4.20;99.90;;;4.80;100.00;98336.59;5046689;28;20464;-82
2022/12/06 10:33:45;;;;;;;4.60;2.97;;;4.30;99.90;;;4.70;100.00;98335.81;5047295;28;20900;-82
2022/12/06 10:36:27;;;;;;;3.63;2.50;;;4.20;99.90;;;4.68;100.00;98336.94;5046559;28;20489;-81
2022/12/06 10:39:04;;;;;;;2.83;2.53;;;4.10;99.90;;;4.72;100.00;98327.91;5048065;28;20568;-81
2022/12/06 10:41:43;;;;;;;3.70;2.37;;;4.30;99.90;;;4.73;100.00;98335.53;5046584;28;20553;-82
2022/12/06 10:44:26;;;;;;;4.07;2.53;;;4.30;99.90;;;4.76;100.00;98335.25;5047336;28;20465;-81
2022/12/06 10:47:02;;;;;;;2.53;2.33;;;4.30;99.90;;;4.73;100.00;98334.72;5047424;28;20854;-81
2022/12/06 10:49:50;;;;;;;3.57;2.80;;;4.30;99.90;;;4.75;100.00;98333.63;5044795;28;20498;-81
2022/12/06 10:52:40;;;;;;;5.23;2.70;;;4.30;99.90;;;4.78;100.00;98333.34;5045239;28;20462;-81
2022/12/06 10:55:24;;;;;;;4.07;2.90;;;4.40;99.90;;;4.75;100.00;98333.63;5043294;28;20497;-81
2022/12/06 10:58:08;;;;;;;4.00;2.77;;;4.20;99.90;;;4.77;100.00;98338.66;5042651;28;20473;-81
2022/12/06 11:00:51;;;;;;;4.70;3.40;;;4.30;99.90;;;4.74;100.00;98333.75;5040827;28;20464;-82
2022/12/06 11:03:30;;;;;;;2.90;2.60;;;4.30;99.90;;;4.75;100.00;98338.00;5039702;28;20468;-82
2022/12/06 11:06:09;;;;;;;3.50;2.90;;;4.40;99.90;;;4.78;100.00;98332.53;5040721;28;20547;-81
2022/12/06 11:08:45;;;;;;;5.03;3.40;;;4.40;99.90;;;4.79;100.00;98332.34;5040397;28;20465;-81
2022/12/06 11:11:20;;;;;;;3.60;3.30;;;4.40;99.90;;;4.85;100.00;98326.63;5044283;28;20469;-82
2022/12/06 11:13:56;;;;;;;2.97;2.47;;;4.40;99.90;;;4.86;100.00;98325.66;5048065;28;20871;-81
2022/12/06 11:16:34;;;;;;;4.70;3.10;;;4.50;99.90;;;4.84;100.00;98327.56;5050739;28;20563;-81
2022/12/06 11:19:21;;;;;;;3.70;2.70;;;4.40;99.90;;;4.89;100.00;98330.56;5049391;28;20471;-82
2022/12/06 11:22:00;;;;;;;4.17;3.07;;;4.50;99.90;;;4.91;100.00;98330.41;5047176;28;20504;-83